BCS15G EHAM-EDDM
Flight info
| Callsign | BCS15G |
|---|---|
| Flight time | 1h 7m |
| Altitude | 31000 |
| Route | EDUPO Z739 MISGO DCT DOJOH DCT DODEN DCT TABUM DCT BOMBI T104 HAREM/N0470F270 T104 ROKIL ROKIL1B |
| Aircraft | B77L/H-SDE1E2E3FGHIJ2J3J4J5M1RWXY/LB1D1 |
Departure
| Time | 2026-05-05 19:17 |
|---|---|
| Airport | Amsterdam Airport Schiphol (EHAM) |
Arrival
| Time | 2026-05-05 20:24 |
|---|---|
| Airport | Munich Airport (EDDM) |
| Time | Latitude | Longitude | Altitude | Speed | Heading |
|---|---|---|---|---|---|
| 2026-05-05 18:45 | 52.29513 | 4.76211 | 2 ft | 0 kts | 149° |
| 2026-05-05 18:58 | 52.29513 | 4.76210 | 2 ft | 0 kts | 149° |
| 2026-05-05 19:00 | 52.29524 | 4.76199 | 3 ft | 2 kts | 149° |
| 2026-05-05 19:01 | 52.29536 | 4.76188 | 3 ft | 2 kts | 154° |
| 2026-05-05 19:01 | 52.29549 | 4.76179 | 5 ft | 2 kts | 158° |
| 2026-05-05 19:01 | 52.29561 | 4.76170 | 3 ft | 2 kts | 158° |
| 2026-05-05 19:01 | 52.29574 | 4.76162 | 3 ft | 2 kts | 170° |
| 2026-05-05 19:02 | 52.29587 | 4.76161 | 3 ft | 2 kts | 187° |
| 2026-05-05 19:02 | 52.29599 | 4.76165 | 3 ft | 2 kts | 211° |
| 2026-05-05 19:02 | 52.29610 | 4.76176 | 4 ft | 2 kts | 219° |
| 2026-05-05 19:02 | 52.29619 | 4.76189 | 2 ft | 2 kts | 233° |
| 2026-05-05 19:03 | 52.29621 | 4.76194 | 2 ft | 0 kts | 237° |
| 2026-05-05 19:03 | 52.29621 | 4.76193 | 2 ft | 1 kts | 237° |
| 2026-05-05 19:03 | 52.29583 | 4.76096 | 1 ft | 15 kts | 237° |
| 2026-05-05 19:04 | 52.29544 | 4.75998 | 1 ft | 0 kts | 239° |
| 2026-05-05 19:06 | 52.29541 | 4.75990 | 1 ft | 1 kts | 240° |
| 2026-05-05 19:06 | 52.29540 | 4.75986 | 1 ft | 4 kts | 240° |
| 2026-05-05 19:07 | 52.29527 | 4.75934 | 1 ft | 5 kts | 249° |
| 2026-05-05 19:07 | 52.29524 | 4.75920 | 1 ft | 0 kts | 249° |
| 2026-05-05 19:08 | 52.29511 | 4.75864 | 2 ft | 13 kts | 248° |
| 2026-05-05 19:08 | 52.29481 | 4.75747 | 2 ft | 12 kts | 244° |
| 2026-05-05 19:08 | 52.29441 | 4.75608 | 0 ft | 10 kts | 260° |
| 2026-05-05 19:09 | 52.29453 | 4.75550 | 0 ft | 0 kts | 309° |
| 2026-05-05 19:11 | 52.29464 | 4.75533 | 0 ft | 7 kts | 319° |
| 2026-05-05 19:11 | 52.29531 | 4.75455 | 0 ft | 19 kts | 326° |
| 2026-05-05 19:11 | 52.29623 | 4.75360 | 3 ft | 11 kts | 328° |
| 2026-05-05 19:11 | 52.29671 | 4.75312 | 4 ft | 4 kts | 328° |
| 2026-05-05 19:12 | 52.29686 | 4.75297 | 3 ft | 2 kts | 329° |
| 2026-05-05 19:12 | 52.29700 | 4.75288 | 3 ft | 2 kts | 342° |
| 2026-05-05 19:12 | 52.29717 | 4.75283 | 4 ft | 3 kts | 351° |
| 2026-05-05 19:12 | 52.29734 | 4.75278 | 4 ft | 3 kts | 351° |
| 2026-05-05 19:13 | 52.29744 | 4.75276 | 4 ft | 1 kts | 351° |
| 2026-05-05 19:13 | 52.29751 | 4.75275 | 5 ft | 3 kts | 355° |
| 2026-05-05 19:13 | 52.29756 | 4.75274 | 5 ft | 4 kts | 355° |
| 2026-05-05 19:13 | 52.29807 | 4.75252 | 6 ft | 10 kts | 328° |
| 2026-05-05 19:14 | 52.29898 | 4.75079 | 0 ft | 31 kts | 311° |
| 2026-05-05 19:14 | 52.30040 | 4.74825 | 8 ft | 30 kts | 312° |
| 2026-05-05 19:14 | 52.30155 | 4.74613 | 6 ft | 26 kts | 311° |
| 2026-05-05 19:14 | 52.30278 | 4.74388 | 10 ft | 28 kts | 311° |
| 2026-05-05 19:15 | 52.30363 | 4.74202 | 6 ft | 9 kts | 278° |
| 2026-05-05 19:15 | 52.30336 | 4.74090 | 4 ft | 14 kts | 241° |
| 2026-05-05 19:15 | 52.30321 | 4.74048 | 4 ft | 11 kts | 238° |
| 2026-05-05 19:15 | 52.30251 | 4.73940 | 1 ft | 18 kts | 217° |
| 2026-05-05 19:16 | 52.30199 | 4.73792 | 1 ft | 12 kts | 279° |
| 2026-05-05 19:16 | 52.30245 | 4.73738 | -1 ft | 3 kts | 4° |
| 2026-05-05 19:16 | 52.30256 | 4.73739 | -2 ft | 3 kts | 4° |
| 2026-05-05 19:16 | 52.30334 | 4.73749 | -3 ft | 32 kts | 4° |
| 2026-05-05 19:17 | 52.30928 | 4.73803 | 3 ft | 137 kts | 2° |
| 2026-05-05 19:17 | 52.32166 | 4.73914 | 171 ft | 202 kts | 2° |
| 2026-05-05 19:17 | 52.33527 | 4.74043 | 1566 ft | 187 kts | 9° |
| 2026-05-05 19:17 | 52.34751 | 4.74642 | 2677 ft | 193 kts | 26° |
| 2026-05-05 19:18 | 52.36059 | 4.75754 | 2873 ft | 228 kts | 29° |
| 2026-05-05 19:18 | 52.37494 | 4.76981 | 3705 ft | 234 kts | 27° |
| 2026-05-05 19:18 | 52.38886 | 4.78367 | 4484 ft | 241 kts | 42° |
| 2026-05-05 19:18 | 52.40017 | 4.80448 | 5236 ft | 250 kts | 49° |
| 2026-05-05 19:19 | 52.41178 | 4.82681 | 5961 ft | 262 kts | 46° |
| 2026-05-05 19:19 | 52.42399 | 4.85000 | 6639 ft | 273 kts | 57° |
| 2026-05-05 19:19 | 52.42985 | 4.87983 | 7425 ft | 285 kts | 87° |
| 2026-05-05 19:19 | 52.42744 | 4.91160 | 8568 ft | 274 kts | 103° |
| 2026-05-05 19:20 | 52.42258 | 4.94134 | 9654 ft | 272 kts | 99° |
| 2026-05-05 19:20 | 52.42050 | 4.97311 | 10058 ft | 287 kts | 96° |
| 2026-05-05 19:20 | 52.41640 | 5.00563 | 10712 ft | 297 kts | 109° |
| 2026-05-05 19:20 | 52.40534 | 5.03524 | 10881 ft | 326 kts | 137° |
| 2026-05-05 19:21 | 52.38511 | 5.05473 | 11090 ft | 348 kts | 159° |
| 2026-05-05 19:21 | 52.36175 | 5.06986 | 11363 ft | 371 kts | 155° |
| 2026-05-05 19:21 | 52.33858 | 5.08964 | 12152 ft | 379 kts | 149° |
| 2026-05-05 19:21 | 52.31769 | 5.11601 | 12860 ft | 385 kts | 134° |
| 2026-05-05 19:22 | 52.30010 | 5.14959 | 13694 ft | 392 kts | 128° |
| 2026-05-05 19:22 | 52.28297 | 5.18455 | 14560 ft | 395 kts | 129° |
| 2026-05-05 19:22 | 52.26512 | 5.21881 | 15466 ft | 397 kts | 131° |
| 2026-05-05 19:22 | 52.24689 | 5.25230 | 16301 ft | 401 kts | 131° |
| 2026-05-05 19:23 | 52.22895 | 5.28764 | 17101 ft | 406 kts | 127° |
| 2026-05-05 19:23 | 52.21246 | 5.32526 | 17918 ft | 409 kts | 124° |
| 2026-05-05 19:23 | 52.19638 | 5.36382 | 18686 ft | 413 kts | 124° |
| 2026-05-05 19:23 | 52.18015 | 5.40267 | 19400 ft | 416 kts | 125° |
| 2026-05-05 19:24 | 52.16365 | 5.44159 | 20076 ft | 420 kts | 126° |
| 2026-05-05 19:24 | 52.14675 | 5.48079 | 20760 ft | 423 kts | 127° |
| 2026-05-05 19:24 | 52.12960 | 5.52020 | 21363 ft | 429 kts | 127° |
| 2026-05-05 19:24 | 52.11243 | 5.55943 | 21999 ft | 433 kts | 127° |
| 2026-05-05 19:25 | 52.09489 | 5.59947 | 22696 ft | 436 kts | 127° |
| 2026-05-05 19:25 | 52.07709 | 5.64000 | 23349 ft | 440 kts | 127° |
| 2026-05-05 19:25 | 52.05918 | 5.68057 | 23896 ft | 443 kts | 129° |
| 2026-05-05 19:25 | 52.03969 | 5.71958 | 24472 ft | 444 kts | 133° |
| 2026-05-05 19:26 | 52.01887 | 5.75692 | 25060 ft | 446 kts | 134° |
| 2026-05-05 19:26 | 51.99801 | 5.79431 | 25629 ft | 448 kts | 134° |
| 2026-05-05 19:26 | 51.97730 | 5.83232 | 26181 ft | 451 kts | 133° |
| 2026-05-05 19:26 | 51.95660 | 5.87089 | 26702 ft | 454 kts | 133° |
| 2026-05-05 19:27 | 51.93583 | 5.90977 | 27226 ft | 457 kts | 133° |
| 2026-05-05 19:27 | 51.91494 | 5.94886 | 27727 ft | 460 kts | 133° |
| 2026-05-05 19:27 | 51.89391 | 5.98812 | 28240 ft | 463 kts | 133° |
| 2026-05-05 19:27 | 51.87297 | 6.02707 | 28720 ft | 465 kts | 133° |
| 2026-05-05 19:28 | 51.85164 | 6.06664 | 29158 ft | 468 kts | 133° |
| 2026-05-05 19:28 | 51.83012 | 6.10626 | 29674 ft | 468 kts | 133° |
| 2026-05-05 19:28 | 51.80859 | 6.14574 | 30286 ft | 465 kts | 133° |
| 2026-05-05 19:28 | 51.78724 | 6.18486 | 30831 ft | 462 kts | 133° |
| 2026-05-05 19:29 | 51.74492 | 6.26221 | 30858 ft | 460 kts | 134° |
| 2026-05-05 19:29 | 51.70250 | 6.33947 | 30859 ft | 459 kts | 133° |
| 2026-05-05 19:30 | 51.66015 | 6.41643 | 30860 ft | 459 kts | 134° |
| 2026-05-05 19:30 | 51.61770 | 6.49331 | 30856 ft | 459 kts | 134° |
| 2026-05-05 19:31 | 51.57545 | 6.56958 | 30854 ft | 458 kts | 134° |
| 2026-05-05 19:31 | 51.53296 | 6.64611 | 30849 ft | 458 kts | 134° |
| 2026-05-05 19:32 | 51.49048 | 6.72242 | 30852 ft | 458 kts | 134° |
| 2026-05-05 19:32 | 51.44796 | 6.79861 | 30854 ft | 458 kts | 134° |
| 2026-05-05 19:33 | 51.40532 | 6.87454 | 30853 ft | 457 kts | 135° |
| 2026-05-05 19:33 | 51.36052 | 6.94553 | 30856 ft | 456 kts | 137° |
| 2026-05-05 19:34 | 51.31469 | 7.01598 | 30852 ft | 456 kts | 137° |
| 2026-05-05 19:35 | 51.24617 | 7.12152 | 30846 ft | 456 kts | 137° |
| 2026-05-05 19:35 | 51.20055 | 7.19180 | 30842 ft | 456 kts | 137° |
| 2026-05-05 19:36 | 51.15487 | 7.26201 | 30828 ft | 456 kts | 137° |
| 2026-05-05 19:36 | 51.10951 | 7.33150 | 30828 ft | 455 kts | 137° |
| 2026-05-05 19:37 | 51.06376 | 7.40138 | 30823 ft | 454 kts | 137° |
| 2026-05-05 19:37 | 51.01837 | 7.47052 | 30822 ft | 454 kts | 137° |
| 2026-05-05 19:38 | 50.97273 | 7.53983 | 30820 ft | 454 kts | 137° |
| 2026-05-05 19:38 | 50.93471 | 7.59744 | 30821 ft | 454 kts | 137° |
| 2026-05-05 19:39 | 50.88900 | 7.66653 | 30817 ft | 454 kts | 137° |
| 2026-05-05 19:39 | 50.84326 | 7.73547 | 30809 ft | 454 kts | 137° |
| 2026-05-05 19:40 | 50.79728 | 7.80425 | 30807 ft | 454 kts | 137° |
| 2026-05-05 19:40 | 50.75125 | 7.87268 | 30801 ft | 454 kts | 137° |
| 2026-05-05 19:41 | 50.70555 | 7.94050 | 30802 ft | 454 kts | 137° |
| 2026-05-05 19:41 | 50.65951 | 8.00872 | 30804 ft | 454 kts | 137° |
| 2026-05-05 19:42 | 50.61331 | 8.07644 | 30803 ft | 453 kts | 139° |
| 2026-05-05 19:42 | 50.56223 | 8.13474 | 30800 ft | 453 kts | 147° |
| 2026-05-05 19:43 | 50.50882 | 8.18751 | 30807 ft | 453 kts | 147° |
| 2026-05-05 19:43 | 50.45584 | 8.24036 | 30812 ft | 454 kts | 147° |
| 2026-05-05 19:44 | 50.40269 | 8.29359 | 30807 ft | 454 kts | 147° |
| 2026-05-05 19:44 | 50.35013 | 8.34612 | 30816 ft | 454 kts | 147° |
| 2026-05-05 19:45 | 50.29773 | 8.40190 | 30819 ft | 454 kts | 141° |
| 2026-05-05 19:45 | 50.25213 | 8.46923 | 30820 ft | 454 kts | 132° |
| 2026-05-05 19:46 | 50.20954 | 8.54239 | 30804 ft | 455 kts | 133° |
| 2026-05-05 19:46 | 50.16670 | 8.61526 | 30801 ft | 455 kts | 133° |
| 2026-05-05 19:47 | 50.12365 | 8.68782 | 30802 ft | 456 kts | 133° |
| 2026-05-05 19:47 | 50.08050 | 8.76031 | 30803 ft | 456 kts | 133° |
| 2026-05-05 19:48 | 50.03600 | 8.83061 | 30804 ft | 456 kts | 137° |
| 2026-05-05 19:48 | 49.98913 | 8.89644 | 30806 ft | 457 kts | 138° |
| 2026-05-05 19:49 | 49.94184 | 8.96265 | 30809 ft | 457 kts | 138° |
| 2026-05-05 19:49 | 49.89453 | 9.02910 | 30815 ft | 458 kts | 138° |
| 2026-05-05 19:50 | 49.84722 | 9.09555 | 30817 ft | 459 kts | 138° |
| 2026-05-05 19:50 | 49.80007 | 9.16159 | 30816 ft | 459 kts | 138° |
| 2026-05-05 19:51 | 49.75254 | 9.22796 | 30820 ft | 460 kts | 138° |
| 2026-05-05 19:51 | 49.70492 | 9.29429 | 30819 ft | 461 kts | 138° |
| 2026-05-05 19:52 | 49.65722 | 9.36055 | 30838 ft | 461 kts | 139° |
| 2026-05-05 19:52 | 49.61038 | 9.42744 | 30838 ft | 462 kts | 134° |
| 2026-05-05 19:53 | 49.56788 | 9.50211 | 30817 ft | 462 kts | 132° |
| 2026-05-05 19:53 | 49.52566 | 9.57695 | 30820 ft | 463 kts | 132° |
| 2026-05-05 19:54 | 49.48314 | 9.65150 | 30837 ft | 464 kts | 133° |
| 2026-05-05 19:54 | 49.44058 | 9.72566 | 30836 ft | 465 kts | 133° |
| 2026-05-05 19:55 | 49.39772 | 9.80022 | 30836 ft | 465 kts | 133° |
| 2026-05-05 19:55 | 49.35468 | 9.87473 | 30837 ft | 466 kts | 133° |
| 2026-05-05 19:56 | 49.31163 | 9.94890 | 30837 ft | 466 kts | 134° |
| 2026-05-05 19:56 | 49.26846 | 10.02311 | 30830 ft | 466 kts | 134° |
| 2026-05-05 19:57 | 49.22550 | 10.09684 | 30778 ft | 457 kts | 134° |
| 2026-05-05 19:57 | 49.20462 | 10.13261 | 30686 ft | 445 kts | 134° |
| 2026-05-05 19:57 | 49.18447 | 10.16707 | 30616 ft | 435 kts | 134° |
| 2026-05-05 19:57 | 49.16455 | 10.20112 | 30548 ft | 424 kts | 134° |
| 2026-05-05 19:58 | 49.14512 | 10.23429 | 30497 ft | 415 kts | 134° |
| 2026-05-05 19:58 | 49.12584 | 10.26638 | 30396 ft | 404 kts | 136° |
| 2026-05-05 19:58 | 49.10662 | 10.29731 | 30037 ft | 399 kts | 137° |
| 2026-05-05 19:58 | 49.08756 | 10.32766 | 29636 ft | 394 kts | 137° |
| 2026-05-05 19:59 | 49.06869 | 10.35771 | 29133 ft | 391 kts | 137° |
| 2026-05-05 19:59 | 49.04996 | 10.38768 | 28630 ft | 388 kts | 136° |
| 2026-05-05 19:59 | 49.03138 | 10.41747 | 28141 ft | 386 kts | 136° |
| 2026-05-05 19:59 | 49.01291 | 10.44706 | 27653 ft | 383 kts | 136° |
| 2026-05-05 20:00 | 48.99457 | 10.47641 | 27168 ft | 381 kts | 136° |
| 2026-05-05 20:00 | 48.97625 | 10.50564 | 26702 ft | 379 kts | 136° |
| 2026-05-05 20:00 | 48.95832 | 10.53418 | 26239 ft | 377 kts | 136° |
| 2026-05-05 20:00 | 48.94017 | 10.56305 | 25792 ft | 375 kts | 136° |
| 2026-05-05 20:01 | 48.92216 | 10.59169 | 25346 ft | 374 kts | 136° |
| 2026-05-05 20:01 | 48.90421 | 10.62022 | 24897 ft | 372 kts | 136° |
| 2026-05-05 20:01 | 48.88634 | 10.64860 | 24467 ft | 371 kts | 136° |
| 2026-05-05 20:01 | 48.86850 | 10.67689 | 24032 ft | 370 kts | 136° |
| 2026-05-05 20:02 | 48.85072 | 10.70510 | 23620 ft | 368 kts | 136° |
| 2026-05-05 20:02 | 48.83320 | 10.73284 | 23150 ft | 367 kts | 136° |
| 2026-05-05 20:02 | 48.81530 | 10.76113 | 22664 ft | 366 kts | 136° |
| 2026-05-05 20:02 | 48.79789 | 10.78858 | 22192 ft | 365 kts | 136° |
| 2026-05-05 20:03 | 48.78026 | 10.81625 | 21719 ft | 363 kts | 136° |
| 2026-05-05 20:03 | 48.76277 | 10.84368 | 21283 ft | 361 kts | 136° |
| 2026-05-05 20:03 | 48.74535 | 10.87098 | 20881 ft | 358 kts | 136° |
| 2026-05-05 20:03 | 48.72805 | 10.89808 | 20459 ft | 356 kts | 136° |
| 2026-05-05 20:04 | 48.71090 | 10.92491 | 20044 ft | 353 kts | 136° |
| 2026-05-05 20:04 | 48.69378 | 10.95164 | 19537 ft | 354 kts | 136° |
| 2026-05-05 20:04 | 48.67655 | 10.97850 | 19013 ft | 355 kts | 136° |
| 2026-05-05 20:04 | 48.65928 | 11.00536 | 18503 ft | 357 kts | 136° |
| 2026-05-05 20:05 | 48.64198 | 11.03226 | 17973 ft | 358 kts | 137° |
| 2026-05-05 20:05 | 48.62458 | 11.05931 | 17389 ft | 359 kts | 137° |
| 2026-05-05 20:05 | 48.60737 | 11.08602 | 16830 ft | 359 kts | 137° |
| 2026-05-05 20:05 | 48.58989 | 11.11303 | 16262 ft | 359 kts | 138° |
| 2026-05-05 20:06 | 48.57119 | 11.13804 | 15703 ft | 357 kts | 145° |
| 2026-05-05 20:06 | 48.55077 | 11.15936 | 15164 ft | 355 kts | 149° |
| 2026-05-05 20:06 | 48.53035 | 11.17975 | 14924 ft | 346 kts | 149° |
| 2026-05-05 20:06 | 48.51091 | 11.19931 | 14822 ft | 333 kts | 149° |
| 2026-05-05 20:07 | 48.49211 | 11.21834 | 14832 ft | 318 kts | 149° |
| 2026-05-05 20:07 | 48.47356 | 11.23732 | 14863 ft | 328 kts | 147° |
| 2026-05-05 20:07 | 48.45656 | 11.26031 | 14536 ft | 333 kts | 136° |
| 2026-05-05 20:07 | 48.44234 | 11.28849 | 13711 ft | 348 kts | 120° |
| 2026-05-05 20:08 | 48.43500 | 11.32442 | 12575 ft | 371 kts | 97° |
| 2026-05-05 20:08 | 48.43550 | 11.36371 | 11724 ft | 377 kts | 87° |
| 2026-05-05 20:08 | 48.43734 | 11.40291 | 11254 ft | 373 kts | 88° |
| 2026-05-05 20:08 | 48.43899 | 11.44135 | 10849 ft | 370 kts | 88° |
| 2026-05-05 20:09 | 48.44053 | 11.47944 | 10689 ft | 358 kts | 88° |
| 2026-05-05 20:09 | 48.44196 | 11.51639 | 10538 ft | 347 kts | 88° |
| 2026-05-05 20:09 | 48.44328 | 11.55219 | 10445 ft | 337 kts | 89° |
| 2026-05-05 20:09 | 48.44455 | 11.58774 | 10455 ft | 342 kts | 89° |
| 2026-05-05 20:10 | 48.44579 | 11.62323 | 10302 ft | 337 kts | 89° |
| 2026-05-05 20:10 | 48.44701 | 11.65814 | 10151 ft | 328 kts | 88° |
| 2026-05-05 20:10 | 48.44823 | 11.69175 | 9820 ft | 315 kts | 88° |
| 2026-05-05 20:10 | 48.44936 | 11.72422 | 9299 ft | 307 kts | 88° |
| 2026-05-05 20:11 | 48.45043 | 11.75602 | 8776 ft | 302 kts | 88° |
| 2026-05-05 20:11 | 48.45147 | 11.78734 | 8262 ft | 298 kts | 88° |
| 2026-05-05 20:11 | 48.45251 | 11.81843 | 7760 ft | 295 kts | 88° |
| 2026-05-05 20:11 | 48.45398 | 11.84954 | 7286 ft | 302 kts | 84° |
| 2026-05-05 20:12 | 48.45635 | 11.88127 | 6820 ft | 307 kts | 83° |
| 2026-05-05 20:12 | 48.45892 | 11.91302 | 6340 ft | 308 kts | 83° |
| 2026-05-05 20:12 | 48.46150 | 11.94512 | 5848 ft | 309 kts | 83° |
| 2026-05-05 20:12 | 48.46399 | 11.97684 | 5324 ft | 300 kts | 83° |
| 2026-05-05 20:13 | 48.46635 | 12.00748 | 4933 ft | 288 kts | 83° |
| 2026-05-05 20:13 | 48.46857 | 12.03668 | 4831 ft | 273 kts | 83° |
| 2026-05-05 20:13 | 48.47066 | 12.06455 | 4834 ft | 262 kts | 82° |
| 2026-05-05 20:13 | 48.47349 | 12.09117 | 4831 ft | 253 kts | 77° |
| 2026-05-05 20:14 | 48.47394 | 12.11753 | 4836 ft | 252 kts | 97° |
| 2026-05-05 20:14 | 48.47341 | 12.14387 | 4838 ft | 258 kts | 86° |
| 2026-05-05 20:14 | 48.47463 | 12.17012 | 4811 ft | 244 kts | 84° |
| 2026-05-05 20:14 | 48.47472 | 12.19497 | 4804 ft | 234 kts | 105° |
| 2026-05-05 20:15 | 48.46738 | 12.21612 | 4830 ft | 229 kts | 140° |
| 2026-05-05 20:15 | 48.45400 | 12.22785 | 4844 ft | 222 kts | 170° |
| 2026-05-05 20:15 | 48.43891 | 12.23146 | 4884 ft | 219 kts | 179° |
| 2026-05-05 20:15 | 48.42369 | 12.23244 | 4896 ft | 218 kts | 187° |
| 2026-05-05 20:16 | 48.40863 | 12.22975 | 4857 ft | 217 kts | 192° |
| 2026-05-05 20:16 | 48.39428 | 12.22646 | 4811 ft | 196 kts | 196° |
| 2026-05-05 20:16 | 48.38337 | 12.21818 | 4814 ft | 164 kts | 233° |
| 2026-05-05 20:16 | 48.37963 | 12.20371 | 4836 ft | 144 kts | 259° |
| 2026-05-05 20:17 | 48.37689 | 12.18946 | 4837 ft | 141 kts | 254° |
| 2026-05-05 20:17 | 48.37448 | 12.17509 | 4837 ft | 139 kts | 259° |
| 2026-05-05 20:17 | 48.37277 | 12.16097 | 4856 ft | 140 kts | 261° |
| 2026-05-05 20:17 | 48.37131 | 12.14646 | 4844 ft | 140 kts | 262° |
| 2026-05-05 20:18 | 48.37001 | 12.13190 | 4845 ft | 141 kts | 262° |
| 2026-05-05 20:18 | 48.36880 | 12.11735 | 4842 ft | 140 kts | 263° |
| 2026-05-05 20:18 | 48.36765 | 12.10290 | 4854 ft | 139 kts | 263° |
| 2026-05-05 20:18 | 48.36651 | 12.08836 | 4839 ft | 139 kts | 263° |
| 2026-05-05 20:19 | 48.36540 | 12.07397 | 4844 ft | 138 kts | 263° |
| 2026-05-05 20:19 | 48.36429 | 12.05963 | 4822 ft | 140 kts | 263° |
| 2026-05-05 20:19 | 48.36317 | 12.04493 | 4636 ft | 141 kts | 263° |
| 2026-05-05 20:19 | 48.36207 | 12.03055 | 4450 ft | 139 kts | 263° |
| 2026-05-05 20:20 | 48.36097 | 12.01637 | 4262 ft | 135 kts | 263° |
| 2026-05-05 20:20 | 48.35990 | 12.00226 | 4102 ft | 137 kts | 263° |
| 2026-05-05 20:20 | 48.35881 | 11.98792 | 3914 ft | 138 kts | 263° |
| 2026-05-05 20:20 | 48.35772 | 11.97364 | 3724 ft | 137 kts | 263° |
| 2026-05-05 20:21 | 48.35663 | 11.95949 | 3551 ft | 136 kts | 263° |
| 2026-05-05 20:21 | 48.35548 | 11.94535 | 3359 ft | 137 kts | 262° |
| 2026-05-05 20:21 | 48.35422 | 11.93127 | 3189 ft | 135 kts | 264° |
| 2026-05-05 20:21 | 48.35320 | 11.91716 | 3021 ft | 136 kts | 264° |
| 2026-05-05 20:22 | 48.35223 | 11.90298 | 2828 ft | 137 kts | 263° |
| 2026-05-05 20:22 | 48.35111 | 11.88882 | 2653 ft | 136 kts | 263° |
| 2026-05-05 20:22 | 48.35004 | 11.87461 | 2463 ft | 137 kts | 262° |
| 2026-05-05 20:22 | 48.34897 | 11.86029 | 2247 ft | 143 kts | 263° |
| 2026-05-05 20:23 | 48.34779 | 11.84544 | 2062 ft | 139 kts | 264° |
| 2026-05-05 20:23 | 48.34671 | 11.83086 | 1897 ft | 141 kts | 263° |
| 2026-05-05 20:23 | 48.34571 | 11.81651 | 1681 ft | 136 kts | 264° |
| 2026-05-05 20:23 | 48.34463 | 11.80243 | 1507 ft | 132 kts | 265° |
| 2026-05-05 20:24 | 48.34365 | 11.78988 | 1482 ft | 109 kts | 262° |
| 2026-05-05 20:24 | 48.34291 | 11.78040 | 1478 ft | 69 kts | 263° |
| 2026-05-05 20:24 | 48.34253 | 11.77500 | 1485 ft | 38 kts | 265° |
| 2026-05-05 20:24 | 48.34288 | 11.77157 | 1482 ft | 30 kts | 290° |
| 2026-05-05 20:25 | 48.34364 | 11.76894 | 1477 ft | 15 kts | 293° |
| 2026-05-05 20:25 | 48.34407 | 11.76747 | 1480 ft | 15 kts | 303° |
| 2026-05-05 20:25 | 48.34489 | 11.76700 | 1478 ft | 12 kts | 355° |
| 2026-05-05 20:25 | 48.34528 | 11.76694 | 1482 ft | 4 kts | 354° |
| 2026-05-05 20:26 | 48.34557 | 11.76690 | 1481 ft | 4 kts | 354° |
| 2026-05-05 20:26 | 48.34587 | 11.76685 | 1485 ft | 4 kts | 354° |
| 2026-05-05 20:26 | 48.34605 | 11.76682 | 1477 ft | 0 kts | 353° |
| 2026-05-05 20:26 | 48.34606 | 11.76681 | 1477 ft | 0 kts | 353° |
| 2026-05-05 20:27 | 48.34609 | 11.76681 | 1478 ft | 1 kts | 353° |
| 2026-05-05 20:27 | 48.34615 | 11.76680 | 1477 ft | 1 kts | 353° |
| 2026-05-05 20:27 | 48.34644 | 11.76674 | 1482 ft | 13 kts | 352° |
| 2026-05-05 20:27 | 48.34700 | 11.76663 | 1485 ft | 6 kts | 353° |
| 2026-05-05 20:28 | 48.34740 | 11.76681 | 1474 ft | 8 kts | 53° |
| 2026-05-05 20:28 | 48.34757 | 11.76794 | 1485 ft | 12 kts | 83° |
| 2026-05-05 20:28 | 48.34764 | 11.76883 | 1490 ft | 7 kts | 83° |
| 2026-05-05 20:28 | 48.34768 | 11.76929 | 1476 ft | 3 kts | 83° |
| 2026-05-05 20:29 | 48.34781 | 11.76957 | 1481 ft | 3 kts | 40° |
| 2026-05-05 20:29 | 48.34804 | 11.76962 | 1482 ft | 3 kts | 359° |
| 2026-05-05 20:29 | 48.34822 | 11.76959 | 1482 ft | 3 kts | 353° |
| 2026-05-05 20:29 | 48.34835 | 11.76957 | 1481 ft | 1 kts | 353° |
| 2026-05-05 20:30 | 48.34846 | 11.76955 | 1476 ft | 2 kts | 353° |
| 2026-05-05 20:30 | 48.34855 | 11.76953 | 1478 ft | 1 kts | 353° |
| 2026-05-05 20:30 | 48.34860 | 11.76952 | 1481 ft | 1 kts | 353° |
| 2026-05-05 20:30 | 48.34866 | 11.76951 | 1484 ft | 1 kts | 353° |
| 2026-05-05 20:31 | 48.34867 | 11.76951 | 1485 ft | 0 kts | 353° |